Time;durP1;ratioP1;P1;durP2;ratioP2;P2;SDS_P1;SDS_P2;PMS_P1;PMS_P2;Temp;Humidity;BMP_temperature;BMP_pressure;BME280_temperature;BME280_humidity;BME280_pressure;Samples;Min_cycle;Max_cycle;Signal;HPM_P1;HPM_P2
2023/06/14 00:00:14;;;;;;;3.90;2.90;;;;;;;15.62;100.00;101958.84;5063243;28;20733;-71
2023/06/14 00:02:40;;;;;;;5.20;2.70;;;;;;;15.56;100.00;101968.22;5067981;28;20279;-71
2023/06/14 00:05:06;;;;;;;4.00;2.50;;;;;;;15.51;100.00;101972.44;5067988;28;20311;-71
2023/06/14 00:07:38;;;;;;;3.73;2.50;;;;;;;15.56;100.00;101966.47;5070169;28;21157;-71
2023/06/14 00:10:04;;;;;;;5.07;2.97;;;;;;;15.51;100.00;101957.78;5064829;28;20284;-71
2023/06/14 00:12:30;;;;;;;5.17;2.77;;;;;;;15.54;100.00;101956.97;5068521;28;20204;-71
2023/06/14 00:14:56;;;;;;;4.93;2.63;;;;;;;15.45;100.00;101952.53;5067039;28;20384;-71
2023/06/14 00:17:22;;;;;;;8.63;2.53;;;;;;;15.40;100.00;101948.13;5064941;28;20700;-71
2023/06/14 00:19:48;;;;;;;5.43;2.70;;;;;;;15.42;100.00;101943.88;5068319;28;20207;-71
2023/06/14 00:22:13;;;;;;;4.97;2.60;;;;;;;15.39;100.00;101942.09;5065014;28;20213;-71
2023/06/14 00:24:39;;;;;;;3.43;2.67;;;;;;;15.41;100.00;101940.41;5067521;28;20307;-71
2023/06/14 00:27:05;;;;;;;5.83;2.87;;;;;;;15.39;100.00;101944.69;5065788;28;20184;-71
2023/06/14 00:29:30;;;;;;;4.13;3.20;;;;;;;15.31;100.00;101948.81;5072331;28;20188;-71
2023/06/14 00:31:56;;;;;;;2.83;2.40;;;;;;;15.34;100.00;101935.97;5065927;28;20226;-71
2023/06/14 00:34:21;;;;;;;6.67;2.80;;;;;;;15.31;100.00;101941.06;5066452;28;20589;-71
2023/06/14 00:36:47;;;;;;;6.97;2.53;;;;;;;15.36;100.00;101936.00;5067060;28;20211;-71
2023/06/14 00:39:13;;;;;;;10.20;2.83;;;;;;;15.30;100.00;101939.31;5066863;28;20231;-71
2023/06/14 00:41:39;;;;;;;6.07;2.70;;;;;;;15.31;100.00;101945.34;5070914;28;20557;-71
2023/06/14 00:44:05;;;;;;;6.07;3.03;;;;;;;15.26;100.00;101942.69;5063628;28;20221;-71
2023/06/14 00:46:30;;;;;;;4.50;3.20;;;;;;;15.24;100.00;101956.41;5069870;28;20556;-71
2023/06/14 00:48:57;;;;;;;6.97;2.57;;;;;;;15.24;100.00;101951.25;5070736;28;20249;-71
2023/06/14 00:51:22;;;;;;;5.20;3.03;;;;;;;15.17;100.00;101947.69;5067977;28;20650;-71
2023/06/14 00:53:48;;;;;;;4.60;2.77;;;;;;;15.19;100.00;101956.31;5072922;28;20220;-71
2023/06/14 00:56:14;;;;;;;5.17;3.23;;;;;;;15.16;100.00;101956.28;5068692;28;20190;-71
2023/06/14 00:58:41;;;;;;;9.10;3.07;;;;;;;15.15;100.00;101958.81;5074545;28;20244;-71
2023/06/14 01:01:07;;;;;;;5.87;3.13;;;;;;;15.13;100.00;101956.19;5070002;28;20185;-71
2023/06/14 01:03:34;;;;;;;6.17;3.10;;;;;;;15.10;100.00;101950.97;5066225;28;20213;-71
2023/06/14 01:06:14;;;;;;;5.83;3.27;;;;;;;15.09;100.00;101951.81;5072763;28;20196;-71
2023/06/14 01:09:03;;;;;;;4.47;2.80;;;;;;;15.07;100.00;101956.09;5076150;28;20211;-71
2023/06/14 01:11:35;;;;;;;5.83;3.00;;;;;;;15.07;100.00;101953.53;5072826;28;20651;-71
2023/06/14 01:14:03;;;;;;;4.87;3.70;;;;;;;15.05;100.00;101946.59;5067331;28;20200;-71
2023/06/14 01:16:31;;;;;;;7.03;3.00;;;;;;;15.03;100.00;101956.00;5072230;28;20203;-71
2023/06/14 01:18:57;;;;;;;6.23;3.30;;;;;;;15.03;100.00;101945.66;5069792;28;20689;-71
2023/06/14 01:21:25;;;;;;;7.57;2.97;;;;;;;14.95;100.00;101952.38;5066116;28;20733;-71
2023/06/14 01:23:52;;;;;;;3.93;2.87;;;;;;;14.97;100.00;101964.47;5073247;28;20220;-71
2023/06/14 01:26:26;;;;;;;4.27;2.80;;;;;;;14.92;100.00;101957.50;5073374;28;20299;-71
2023/06/14 01:28:58;;;;;;;4.73;2.90;;;;;;;14.96;100.00;101955.00;5055795;28;20310;-72
2023/06/14 01:31:25;;;;;;;3.50;2.73;;;;;;;14.96;100.00;101964.47;5088245;28;20185;-71
2023/06/14 01:33:51;;;;;;;4.63;2.77;;;;;;;14.91;100.00;101956.63;5065265;28;20224;-72
2023/06/14 01:36:19;;;;;;;5.73;3.10;;;;;;;14.83;100.00;101962.47;5075845;28;20295;-71
2023/06/14 01:38:46;;;;;;;6.07;2.80;;;;;;;14.79;100.00;101961.56;5079800;28;20280;-71
2023/06/14 01:41:13;;;;;;;5.80;3.23;;;;;;;14.79;100.00;101958.97;5068135;28;20548;-71
2023/06/14 01:43:40;;;;;;;7.27;3.30;;;;;;;14.80;100.00;101968.44;5072507;28;20205;-71
2023/06/14 01:46:06;;;;;;;5.97;3.57;;;;;;;14.79;100.00;101971.00;5067012;28;20239;-71
2023/06/14 01:48:32;;;;;;;6.50;3.00;;;;;;;14.72;100.00;101970.00;5064852;28;20217;-71
2023/06/14 01:50:57;;;;;;;7.17;2.83;;;;;;;14.80;100.00;101971.03;5061716;28;20227;-71
2023/06/14 01:53:23;;;;;;;5.00;3.40;;;;;;;14.77;100.00;101970.06;5066289;28;20300;-71
2023/06/14 01:55:49;;;;;;;7.80;3.37;;;;;;;14.76;100.00;101966.66;5073546;28;20188;-71
2023/06/14 01:58:18;;;;;;;9.43;3.83;;;;;;;14.72;100.00;101966.53;5068321;28;20227;-71
2023/06/14 02:00:45;;;;;;;4.90;3.00;;;;;;;14.61;100.00;101961.19;5085427;28;20219;-71
2023/06/14 02:03:11;;;;;;;5.60;3.17;;;;;;;14.56;100.00;101959.34;5066470;28;20208;-72
2023/06/14 02:05:39;;;;;;;5.03;3.20;;;;;;;14.58;100.00;101971.41;5062034;28;20202;-71
2023/06/14 02:08:05;;;;;;;4.53;3.33;;;;;;;14.48;100.00;101966.03;5069153;28;20193;-71
2023/06/14 02:10:30;;;;;;;5.00;3.33;;;;;;;14.52;100.00;101968.72;5073188;28;20678;-71
2023/06/14 02:12:56;;;;;;;4.53;3.13;;;;;;;14.44;100.00;101964.22;5070208;28;20197;-71
2023/06/14 02:15:21;;;;;;;4.13;3.20;;;;;;;14.47;100.00;101966.88;5070554;28;20184;-71
2023/06/14 02:17:49;;;;;;;4.13;2.80;;;;;;;14.43;100.00;101976.25;5072608;28;20212;-71
2023/06/14 02:20:16;;;;;;;5.23;3.27;;;;;;;14.42;100.00;101973.63;5055821;28;20217;-71
2023/06/14 02:22:42;;;;;;;5.70;2.97;;;;;;;14.38;100.00;101971.81;5070361;28;20204;-71
2023/06/14 02:25:08;;;;;;;5.37;3.13;;;;;;;14.27;100.00;101971.56;5069849;28;20712;-71
2023/06/14 02:27:34;;;;;;;5.10;3.27;;;;;;;14.26;100.00;101976.69;5074794;28;20227;-71
2023/06/14 02:30:00;;;;;;;5.27;3.67;;;;;;;14.29;100.00;101982.81;5065716;28;20305;-71
2023/06/14 02:32:27;;;;;;;5.47;3.20;;;;;;;14.22;100.00;101977.47;5071469;28;20296;-71
2023/06/14 02:34:53;;;;;;;6.57;3.70;;;;;;;14.17;100.00;101985.06;5067868;28;20623;-71
2023/06/14 02:37:19;;;;;;;6.57;3.90;;;;;;;14.16;100.00;101983.31;5067663;28;20233;-71
2023/06/14 02:39:45;;;;;;;6.43;3.60;;;;;;;14.17;100.00;101979.00;5066520;28;20534;-71
2023/06/14 02:42:11;;;;;;;5.93;3.43;;;;;;;14.12;100.00;101973.78;5051270;28;20253;-71
2023/06/14 02:44:36;;;;;;;6.50;3.27;;;;;;;14.11;100.00;101977.19;5067491;28;20225;-71
2023/06/14 02:47:02;;;;;;;6.40;3.20;;;;;;;14.01;100.00;101984.66;5066281;28;20300;-71
2023/06/14 02:49:28;;;;;;;5.40;3.20;;;;;;;14.00;100.00;101980.34;5066499;28;20201;-71
2023/06/14 02:51:54;;;;;;;5.00;3.40;;;;;;;13.95;100.00;101984.53;5065688;28;20189;-71
2023/06/14 02:54:19;;;;;;;5.50;3.90;;;;;;;14.01;100.00;101982.09;5066718;28;20697;-71
2023/06/14 02:56:45;;;;;;;7.97;3.40;;;;;;;13.95;100.00;101989.69;5067053;28;20189;-71
2023/06/14 02:59:10;;;;;;;5.97;3.57;;;;;;;13.95;100.00;101995.69;5064689;28;20189;-71
2023/06/14 03:01:40;;;;;;;5.23;3.70;;;;;;;13.91;100.00;101990.44;5067261;28;20193;-71
2023/06/14 03:04:10;;;;;;;4.97;3.07;;;;;;;13.86;100.00;101986.88;5064311;28;20359;-71
2023/06/14 03:06:39;;;;;;;6.57;3.53;;;;;;;13.89;100.00;101989.50;5064692;28;20185;-71
2023/06/14 03:09:05;;;;;;;7.37;3.20;;;;;;;13.85;100.00;101992.88;5066825;28;20207;-71
2023/06/14 03:11:32;;;;;;;9.33;4.23;;;;;;;13.88;100.00;101995.50;5067235;28;20184;-71
2023/06/14 03:13:59;;;;;;;4.93;3.77;;;;;;;13.87;100.00;101994.66;5064863;28;20251;-71
2023/06/14 03:16:28;;;;;;;6.70;4.00;;;;;;;13.81;100.00;101998.78;5077995;28;20190;-71
2023/06/14 03:18:55;;;;;;;7.90;3.63;;;;;;;13.79;100.00;102000.41;5066636;28;20681;-71
2023/06/14 03:21:22;;;;;;;7.20;3.60;;;;;;;13.80;100.00;102000.47;5064609;28;20188;-71
2023/06/14 03:23:49;;;;;;;8.07;3.60;;;;;;;13.81;100.00;102004.78;5065677;28;20414;-71
2023/06/14 03:26:17;;;;;;;4.70;3.27;;;;;;;13.80;100.00;102008.19;5062999;28;20779;-71
2023/06/14 03:28:49;;;;;;;5.27;3.40;;;;;;;13.81;100.00;102011.66;5065072;28;20189;-71
2023/06/14 03:31:16;;;;;;;8.17;4.07;;;;;;;13.74;100.00;102014.88;5066899;28;20288;-71
2023/06/14 03:33:42;;;;;;;5.70;3.43;;;;;;;13.78;100.00;102019.28;5067349;28;20637;-71
2023/06/14 03:36:08;;;;;;;9.33;3.80;;;;;;;13.76;100.00;102015.81;5064525;28;21182;-71
2023/06/14 03:38:34;;;;;;;7.40;4.40;;;;;;;13.74;100.00;102017.44;5066838;28;20283;-71
2023/06/14 03:41:00;;;;;;;10.63;3.90;;;;;;;13.72;100.00;102016.56;5066934;28;20267;-71
2023/06/14 03:43:27;;;;;;;7.67;4.13;;;;;;;13.75;100.00;102024.34;5066784;28;20690;-71
2023/06/14 03:45:53;;;;;;;6.40;4.10;;;;;;;13.81;100.00;102027.94;5066602;28;20189;-71
2023/06/14 03:48:20;;;;;;;8.77;3.77;;;;;;;13.76;100.00;102034.69;5065290;28;20249;-71
2023/06/14 03:50:45;;;;;;;8.10;3.83;;;;;;;13.81;100.00;102034.81;5067128;28;20783;-71
2023/06/14 03:53:11;;;;;;;6.70;3.77;;;;;;;13.78;100.00;102040.75;5061784;28;20216;-71
2023/06/14 03:55:41;;;;;;;7.30;3.87;;;;;;;13.79;100.00;102041.59;5066493;28;20967;-71
2023/06/14 03:58:06;;;;;;;5.93;4.10;;;;;;;13.77;100.00;102044.13;5065894;28;20290;-71
2023/06/14 04:00:32;;;;;;;9.07;3.73;;;;;;;13.83;100.00;102043.44;5066285;28;20185;-71
2023/06/14 04:02:58;;;;;;;5.83;4.00;;;;;;;13.86;100.00;102051.25;5067061;28;20250;-71
2023/06/14 04:05:26;;;;;;;6.70;3.80;;;;;;;13.84;100.00;102046.06;5066056;28;20205;-71
2023/06/14 04:07:55;;;;;;;7.73;3.87;;;;;;;13.89;100.00;102049.63;5065240;28;20185;-71
2023/06/14 04:10:21;;;;;;;6.97;4.07;;;;;;;13.93;100.00;102048.88;5064973;28;20204;-71
2023/06/14 04:12:46;;;;;;;6.80;3.80;;;;;;;13.93;100.00;102045.41;5066640;28;20571;-71
2023/06/14 04:15:12;;;;;;;7.10;3.90;;;;;;;13.95;100.00;102054.91;5066356;28;20192;-71
2023/06/14 04:17:38;;;;;;;5.67;3.83;;;;;;;14.03;100.00;102057.66;5081255;28;20211;-71
2023/06/14 04:20:06;;;;;;;6.83;3.73;;;;;;;14.10;100.00;102049.28;5063427;28;20291;-71
2023/06/14 04:22:32;;;;;;;6.77;4.10;;;;;;;14.11;100.00;102051.91;5066498;28;20204;-71
2023/06/14 04:24:59;;;;;;;8.10;4.30;;;;;;;14.18;100.00;102051.19;5066379;28;20221;-71
2023/06/14 04:27:27;;;;;;;7.40;4.27;;;;;;;14.28;100.00;102052.34;5065163;28;20697;-71
2023/06/14 04:29:56;;;;;;;7.07;4.20;;;;;;;14.33;100.00;102054.19;5066754;28;20197;-71
2023/06/14 04:32:25;;;;;;;6.70;4.00;;;;;;;14.40;100.00;102055.19;5063133;28;20634;-71
2023/06/14 04:34:55;;;;;;;5.57;3.73;;;;;;;14.46;100.00;102056.19;5061552;28;20299;-71
2023/06/14 04:37:22;;;;;;;6.00;3.87;;;;;;;14.51;100.00;102064.91;5045734;28;20576;-71
2023/06/14 04:39:48;;;;;;;7.87;4.17;;;;;;;14.55;100.00;102061.56;5066705;28;20185;-71
2023/06/14 04:42:14;;;;;;;8.90;4.20;;;;;;;14.61;100.00;102068.56;5066267;28;20193;-71
2023/06/14 04:44:43;;;;;;;8.90;4.10;;;;;;;14.68;100.00;102062.72;5064963;28;20712;-71
2023/06/14 04:47:12;;;;;;;5.83;3.77;;;;;;;14.77;100.00;102071.53;5064863;28;20203;-71
2023/06/14 04:49:39;;;;;;;10.43;4.47;;;;;;;14.87;100.00;102064.88;5066322;28;20193;-71
2023/06/14 04:52:05;;;;;;;5.73;4.10;;;;;;;14.97;100.00;102061.66;5060479;28;20264;-71
2023/06/14 04:54:37;;;;;;;7.60;3.97;;;;;;;15.00;100.00;102066.84;5065769;28;20224;-72
2023/06/14 04:57:06;;;;;;;6.93;4.60;;;;;;;15.14;100.00;102071.47;5066381;28;20189;-71
2023/06/14 04:59:35;;;;;;;9.87;3.83;;;;;;;15.28;100.00;102070.03;5064834;28;20185;-71
2023/06/14 05:02:01;;;;;;;6.67;3.87;;;;;;;15.35;100.00;102065.91;5064133;28;20955;-71
2023/06/14 05:04:27;;;;;;;6.97;3.77;;;;;;;15.45;100.00;102075.56;5079453;28;20225;-71
2023/06/14 05:06:57;;;;;;;9.13;3.90;;;;;;;15.54;100.00;102068.00;5063844;28;20194;-71
2023/06/14 05:09:23;;;;;;;15.67;4.13;;;;;;;15.67;100.00;102059.63;5064717;28;20592;-71
2023/06/14 05:11:50;;;;;;;9.00;4.23;;;;;;;15.79;100.00;102067.63;5066010;28;20196;-71
2023/06/14 05:14:15;;;;;;;6.17;4.00;;;;;;;15.91;100.00;102071.28;5065767;28;20209;-71
2023/06/14 05:16:42;;;;;;;6.87;4.07;;;;;;;16.03;100.00;102068.03;5072073;28;20189;-72
2023/06/14 05:19:08;;;;;;;8.23;4.27;;;;;;;16.13;100.00;102067.34;5066075;28;20219;-72
2023/06/14 05:21:34;;;;;;;7.37;3.87;;;;;;;16.18;100.00;102071.75;5065831;28;20193;-72
2023/06/14 05:24:00;;;;;;;7.80;4.17;;;;;;;16.30;100.00;102069.34;5064537;28;20213;-72
2023/06/14 05:26:29;;;;;;;8.20;4.17;;;;;;;16.39;100.00;102069.50;5062037;28;20238;-71
2023/06/14 05:29:00;;;;;;;6.03;4.07;;;;;;;16.49;100.00;102065.38;5067554;28;20193;-72
2023/06/14 05:31:26;;;;;;;6.93;4.07;;;;;;;16.58;100.00;102065.50;5065830;28;20200;-71
2023/06/14 05:33:52;;;;;;;7.50;4.20;;;;;;;16.65;100.00;102064.72;5066994;28;20989;-71
2023/06/14 05:36:18;;;;;;;6.23;3.50;;;;;;;16.85;100.00;102065.91;5062233;28;20204;-72
2023/06/14 05:38:45;;;;;;;5.10;3.73;;;;;;;16.96;100.00;102056.56;5066073;28;20192;-72
2023/06/14 05:41:11;;;;;;;7.73;3.70;;;;;;;17.10;100.00;102050.72;5067925;28;20201;-72
2023/06/14 05:43:36;;;;;;;7.27;4.33;;;;;;;17.20;100.00;102060.31;5070183;28;20227;-72
2023/06/14 05:46:01;;;;;;;4.73;3.70;;;;;;;17.19;100.00;102048.22;5068155;28;20204;-72
2023/06/14 05:48:29;;;;;;;6.10;3.97;;;;;;;17.21;100.00;102058.56;5067640;28;20662;-72
2023/06/14 05:50:54;;;;;;;5.13;3.60;;;;;;;17.37;100.00;102052.75;5067357;28;20200;-72
2023/06/14 05:53:20;;;;;;;4.90;3.20;;;;;;;17.52;100.00;102040.88;5065507;28;20225;-71
2023/06/14 05:55:45;;;;;;;9.10;3.63;;;;;;;17.62;100.00;101992.59;5070562;28;20319;-71
2023/06/14 05:58:10;;;;;;;6.03;3.73;;;;;;;17.71;100.00;102001.31;5070356;28;20220;-72
2023/06/14 06:00:36;;;;;;;5.27;3.43;;;;;;;17.78;100.00;101995.31;5069008;28;20224;-71
2023/06/14 06:03:02;;;;;;;5.23;3.40;;;;;;;17.95;100.00;102003.22;5065865;28;20228;-71
2023/06/14 06:05:27;;;;;;;5.40;3.47;;;;;;;18.08;100.00;101995.56;5065117;28;20224;-71
2023/06/14 06:07:52;;;;;;;6.13;3.30;;;;;;;18.06;100.00;101980.88;5067261;28;20197;-71
2023/06/14 06:10:18;;;;;;;5.03;3.40;;;;;;;18.19;100.00;101975.75;5068097;28;20193;-72
2023/06/14 06:12:43;;;;;;;5.33;3.77;;;;;;;18.22;100.00;101955.06;5067319;28;20192;-71
2023/06/14 06:15:11;;;;;;;6.93;3.87;;;;;;;18.34;100.00;101925.75;5068609;28;20662;-71
2023/06/14 06:17:37;;;;;;;3.80;3.23;;;;;;;18.40;100.00;101900.72;5069294;28;20212;-71
2023/06/14 06:20:05;;;;;;;7.13;2.83;;;;;;;18.51;100.00;101911.16;5064554;28;20188;-72
2023/06/14 06:22:31;;;;;;;6.40;3.17;;;;;;;18.72;100.00;101919.00;5063751;28;20193;-71
2023/06/14 06:24:56;;;;;;;6.47;3.73;;;;;;;18.76;100.00;101907.78;5067062;28;20228;-72
2023/06/14 06:27:21;;;;;;;5.50;3.53;;;;;;;18.90;100.00;101912.16;5069633;28;20201;-72
2023/06/14 06:29:48;;;;;;;6.90;3.60;;;;;;;18.90;100.00;101906.06;5065706;28;20204;-72
2023/06/14 06:32:14;;;;;;;7.73;3.20;;;;;;;19.13;100.00;101875.81;5067212;28;20658;-72
2023/06/14 06:34:40;;;;;;;8.30;3.13;;;;;;;19.28;100.00;101865.47;5065901;28;20209;-72
2023/06/14 06:37:06;;;;;;;6.90;3.03;;;;;;;19.23;100.00;101839.50;5057900;28;20197;-72
2023/06/14 06:39:31;;;;;;;7.80;3.47;;;;;;;19.39;100.00;101830.00;5058403;28;20204;-72
2023/06/14 06:41:57;;;;;;;6.80;3.13;;;;;;;19.50;100.00;101834.31;5069829;28;20208;-72
2023/06/14 06:44:31;;;;;;;4.27;2.67;;;;;;;19.61;100.00;101823.88;5066612;28;20216;-72
2023/06/14 06:46:57;;;;;;;5.93;3.27;;;;;;;19.79;100.00;101822.13;5067877;28;20334;-72
2023/06/14 06:49:23;;;;;;;4.43;2.93;;;;;;;19.49;100.00;101803.13;5063980;28;20246;-72
2023/06/14 06:52:03;;;;;;;4.37;3.10;;;;;;;19.74;99.16;101791.78;5064704;28;20806;-72
2023/06/14 06:54:28;;;;;;;6.70;2.93;;;;;;;19.90;99.53;101806.50;5059772;28;20220;-72
2023/06/14 06:56:54;;;;;;;8.83;3.13;;;;;;;19.88;98.24;101808.22;5062260;28;20562;-72
2023/06/14 06:59:20;;;;;;;8.77;3.50;;;;;;;19.83;99.69;101821.25;5067552;28;20201;-72
2023/06/14 07:01:46;;;;;;;5.63;2.90;;;;;;;20.08;99.58;101812.50;5066940;28;20611;-72
2023/06/14 07:04:12;;;;;;;5.33;3.20;;;;;;;20.29;98.83;101825.44;5064397;28;20221;-72
2023/06/14 07:06:37;;;;;;;6.73;3.00;;;;;;;20.29;89.25;101763.00;5061111;28;20200;-72
2023/06/14 07:09:05;;;;;;;5.20;3.50;;;;;;;20.46;91.89;101786.31;5059665;28;20201;-72
2023/06/14 07:11:30;;;;;;;5.57;3.00;;;;;;;20.57;91.60;101793.19;5055090;28;20280;-72
2023/06/14 07:13:56;;;;;;;3.70;2.90;;;;;;;20.77;88.81;101793.06;5067056;28;20626;-72
2023/06/14 07:16:21;;;;;;;4.60;2.60;;;;;;;20.81;94.47;101819.06;5065289;28;20193;-72
2023/06/14 07:18:47;;;;;;;4.80;2.57;;;;;;;20.93;92.64;101815.53;5066951;28;20209;-71
2023/06/14 07:21:12;;;;;;;5.37;3.30;;;;;;;20.90;86.58;101779.97;5060844;28;20205;-71
2023/06/14 07:23:38;;;;;;;4.80;3.10;;;;;;;21.05;86.75;101792.88;5062004;28;20586;-71
2023/06/14 07:26:03;;;;;;;6.90;3.10;;;;;;;21.11;87.21;101794.56;5065223;28;20303;-72
2023/06/14 07:28:29;;;;;;;6.97;3.00;;;;;;;21.22;90.42;101818.78;5067695;28;20196;-71
2023/06/14 07:30:54;;;;;;;4.03;2.73;;;;;;;21.41;81.43;101774.31;5065945;28;20284;-70
2023/06/14 07:33:20;;;;;;;6.03;2.93;;;;;;;21.67;81.07;101774.03;5063851;28;20218;-71
2023/06/14 07:35:45;;;;;;;5.23;3.40;;;;;;;21.64;82.54;101794.91;5064577;28;20189;-71
2023/06/14 07:38:11;;;;;;;6.10;3.37;;;;;;;21.64;77.07;101767.09;5060019;28;20204;-70
2023/06/14 07:40:36;;;;;;;4.50;3.37;;;;;;;21.77;80.75;101797.41;5061515;28;20281;-70
2023/06/14 07:43:02;;;;;;;3.83;2.87;;;;;;;21.99;77.70;101790.22;5068191;28;20235;-70
2023/06/14 07:45:28;;;;;;;5.43;2.80;;;;;;;22.05;77.86;101817.09;5064822;28;20221;-70
2023/06/14 07:47:53;;;;;;;3.40;2.80;;;;;;;22.02;76.67;101814.50;5061679;28;20201;-71
2023/06/14 07:50:19;;;;;;;6.43;3.53;;;;;;;22.18;75.11;101817.81;5061919;28;20197;-70
2023/06/14 07:52:45;;;;;;;4.43;2.37;;;;;;;22.26;68.92;101816.81;5062379;28;20737;-71
2023/06/14 07:55:10;;;;;;;3.03;2.70;;;;;;;22.39;69.04;101828.81;5060862;28;20749;-71
2023/06/14 07:57:36;;;;;;;4.77;2.87;;;;;;;22.58;69.04;101846.91;5064955;28;20208;-71
2023/06/14 08:00:06;;;;;;;4.97;2.67;;;;;;;22.65;67.45;101843.34;5066602;28;20200;-71
2023/06/14 08:02:37;;;;;;;3.07;2.77;;;;;;;22.71;66.62;101841.50;5064358;28;20231;-71
2023/06/14 08:05:03;;;;;;;5.53;2.60;;;;;;;22.90;65.09;101849.91;5061581;28;20367;-71
2023/06/14 08:07:28;;;;;;;5.40;2.97;;;;;;;23.11;66.61;101863.53;5075628;28;20232;-70
2023/06/14 08:09:54;;;;;;;6.57;3.10;;;;;;;22.76;64.72;101870.16;5060995;28;20197;-71
2023/06/14 08:12:19;;;;;;;6.63;3.07;;;;;;;22.94;65.54;101880.34;5067178;28;20197;-71
2023/06/14 08:14:45;;;;;;;5.40;2.70;;;;;;;23.22;61.84;101853.81;5065957;28;20261;-71
2023/06/14 08:17:10;;;;;;;4.23;3.30;;;;;;;23.16;58.50;101845.16;5067190;28;20239;-71
2023/06/14 08:19:36;;;;;;;4.47;2.40;;;;;;;23.51;59.32;101856.78;5063822;28;20193;-71
2023/06/14 08:22:03;;;;;;;4.53;2.83;;;;;;;23.48;59.26;101866.44;5061261;28;20236;-71
2023/06/14 08:24:29;;;;;;;5.93;2.77;;;;;;;23.86;57.57;101858.78;5054936;28;20229;-70
2023/06/14 08:26:54;;;;;;;3.20;2.80;;;;;;;23.94;56.04;101863.00;5062224;28;20197;-70
2023/06/14 08:29:20;;;;;;;4.50;2.63;;;;;;;23.76;55.12;101863.31;5063477;28;20287;-71
2023/06/14 08:31:47;;;;;;;4.90;3.10;;;;;;;23.99;58.63;101907.44;5064200;28;20197;-71
2023/06/14 08:34:12;;;;;;;3.27;2.53;;;;;;;24.12;57.19;101886.19;5059067;28;20220;-71
2023/06/14 08:36:38;;;;;;;5.23;2.73;;;;;;;24.18;54.91;101870.38;5053053;28;20189;-72
2023/06/14 08:39:03;;;;;;;4.13;2.67;;;;;;;24.39;56.47;101888.28;5063462;28;20200;-71
2023/06/14 08:41:29;;;;;;;6.70;2.90;;;;;;;24.35;54.24;101855.19;5064630;28;20203;-71
2023/06/14 08:43:56;;;;;;;4.37;2.80;;;;;;;24.41;53.25;101854.19;5064506;28;20224;-71
2023/06/14 08:46:25;;;;;;;5.60;2.87;;;;;;;24.39;51.93;101856.84;5063769;28;20192;-71
2023/06/14 08:48:52;;;;;;;4.47;2.63;;;;;;;24.49;52.67;101862.78;5064415;28;20243;-71
2023/06/14 08:51:23;;;;;;;6.30;3.10;;;;;;;24.64;51.25;101854.59;5062450;28;20250;-71
2023/06/14 08:53:58;;;;;;;6.55;2.78;;;;;;;24.65;50.19;101851.97;5062995;28;20258;-71
2023/06/14 08:56:27;;;;;;;3.40;2.83;;;;;;;24.93;51.01;101881.00;5061567;28;20715;-71
2023/06/14 08:58:54;;;;;;;5.05;2.78;;;;;;;25.11;50.05;101854.38;5065769;28;20193;-71
2023/06/14 09:01:21;;;;;;;5.28;2.90;;;;;;;25.09;49.33;101866.66;5061649;28;20245;-71
2023/06/14 09:03:48;;;;;;;5.50;2.78;;;;;;;25.05;48.87;101870.25;5063095;28;20232;-72
2023/06/14 09:06:15;;;;;;;5.13;2.83;;;;;;;25.00;49.42;101865.09;5061145;28;20264;-71
2023/06/14 09:08:45;;;;;;;9.18;3.08;;;;;;;25.41;49.04;101872.03;5062397;28;20662;-72
2023/06/14 09:11:14;;;;;;;4.53;2.75;;;;;;;25.53;48.46;101855.94;5067779;28;20203;-71
2023/06/14 09:13:41;;;;;;;4.05;3.08;;;;;;;25.35;50.18;101898.38;5084304;28;20600;-71
2023/06/14 09:16:07;;;;;;;5.07;3.10;;;;;;;25.40;48.73;101876.41;5058167;28;20194;-72
2023/06/14 09:18:40;;;;;;;9.70;3.10;;;;;;;25.22;49.19;101876.81;5064425;28;20211;-72
2023/06/14 09:21:09;;;;;;;9.35;3.10;;;;;;;25.86;49.24;101876.06;5066199;28;20197;-72
2023/06/14 09:23:42;;;;;;;4.68;2.80;;;;;;;25.79;48.34;101875.34;5070575;28;20327;-71
2023/06/14 09:26:12;;;;;;;4.80;3.08;;;;;;;25.41;48.95;101885.16;5064193;28;20242;-72
2023/06/14 09:28:44;;;;;;;5.30;3.35;;;;;;;24.85;49.36;101890.81;5067273;28;20311;-72
2023/06/14 09:31:11;;;;;;;3.78;2.78;;;;;;;24.91;49.89;101906.41;5062458;28;20201;-72
2023/06/14 09:33:37;;;;;;;6.20;3.40;;;;;;;25.66;48.18;101875.75;5063447;28;20587;-71
2023/06/14 09:36:04;;;;;;;6.05;2.88;;;;;;;26.07;46.61;101852.72;5067839;28;20197;-71
2023/06/14 09:38:30;;;;;;;4.72;3.00;;;;;;;26.09;47.55;101940.25;5067110;28;20205;-71
2023/06/14 09:40:59;;;;;;;4.20;2.90;;;;;;;26.14;45.44;101919.97;5063832;28;20398;-71
2023/06/14 09:43:26;;;;;;;6.88;2.80;;;;;;;25.64;46.58;101954.50;5067725;28;20216;-72
2023/06/14 09:45:54;;;;;;;6.85;3.40;;;;;;;24.89;46.37;101940.53;5057602;28;20193;-71
2023/06/14 09:48:20;;;;;;;6.10;3.40;;;;;;;25.22;47.21;101960.75;5068237;28;20181;-71
2023/06/14 09:50:47;;;;;;;4.38;2.90;;;;;;;25.53;47.79;101972.28;5066283;28;20188;-71
2023/06/14 09:53:13;;;;;;;4.40;3.03;;;;;;;26.29;48.74;101979.13;5062951;28;20312;-71
2023/06/14 09:55:41;;;;;;;3.67;3.05;;;;;;;25.55;46.42;101932.91;5061142;28;20276;-71
2023/06/14 09:58:09;;;;;;;4.65;2.95;;;;;;;25.73;47.79;101951.66;5069970;28;20242;-71
2023/06/14 10:00:36;;;;;;;6.50;3.05;;;;;;;25.81;48.33;101946.22;5065163;28;20871;-71
2023/06/14 10:03:29;;;;;;;5.75;3.28;;;;;;;25.42;47.06;101934.94;5063865;28;20258;-71
2023/06/14 10:06:01;;;;;;;3.63;3.03;;;;;;;25.61;46.58;101927.50;5062840;28;20266;-71
2023/06/14 10:08:30;;;;;;;7.57;3.40;;;;;;;25.35;47.80;101948.22;5061701;28;20193;-71
2023/06/14 10:10:56;;;;;;;5.20;3.00;;;;;;;25.40;47.60;101938.50;5068227;28;20196;-71
2023/06/14 10:13:22;;;;;;;4.22;3.10;;;;;;;25.89;47.32;101931.13;5067652;28;20270;-72
2023/06/14 10:16:06;;;;;;;5.13;3.10;;;;;;;25.56;46.38;101919.72;5067722;28;20189;-71
2023/06/14 10:18:51;;;;;;;6.40;3.40;;;;;;;25.54;45.88;101925.91;5059891;28;20209;-71
2023/06/14 10:21:26;;;;;;;4.57;3.33;;;;;;;26.26;47.16;101940.66;5064280;28;20592;-72
2023/06/14 10:23:51;;;;;;;6.85;3.25;;;;;;;26.71;44.30;101899.91;5065107;28;20307;-72
2023/06/14 10:26:21;;;;;;;4.38;3.00;;;;;;;26.77;44.34;101910.28;5069233;28;20746;-71
2023/06/14 10:29:09;;;;;;;5.32;2.92;;;;;;;26.29;45.10;101942.34;5064617;28;20639;-71
2023/06/14 10:31:42;;;;;;;4.57;3.10;;;;;;;26.64;43.16;101901.03;5065089;28;20189;-72
2023/06/14 10:34:08;;;;;;;6.38;3.13;;;;;;;27.23;43.41;101913.22;5065946;28;20215;-71
2023/06/14 10:36:34;;;;;;;7.13;3.20;;;;;;;27.25;42.49;101903.50;5062109;28;20194;-71
2023/06/14 10:39:00;;;;;;;6.45;3.13;;;;;;;27.34;42.39;101905.84;5067799;28;20731;-71
2023/06/14 10:41:29;;;;;;;6.35;2.95;;;;;;;26.87;42.95;101927.50;5066787;28;20200;-71
2023/06/14 10:44:31;;;;;;;5.78;3.20;;;;;;;26.18;43.19;101941.75;5065090;28;20225;-71
2023/06/14 10:47:00;;;;;;;7.38;3.10;;;;;;;25.89;43.62;101936.38;5060906;28;20674;-69
2023/06/14 10:49:43;;;;;;;5.38;3.17;;;;;;;25.75;44.19;101949.88;5065405;28;20206;-70
2023/06/14 10:52:18;;;;;;;6.68;3.10;;;;;;;26.61;43.57;101916.88;5063010;28;20193;-69
2023/06/14 10:55:03;;;;;;;5.28;3.15;;;;;;;26.08;44.19;101914.00;5068028;28;20232;-69
2023/06/14 10:57:32;;;;;;;4.82;2.60;;;;;;;26.35;42.76;101902.75;5065874;28;20200;-70
2023/06/14 10:59:59;;;;;;;5.13;3.00;;;;;;;26.97;43.30;101896.50;5067418;28;20225;-70
2023/06/14 11:02:50;;;;;;;8.07;3.20;;;;;;;26.53;43.37;101900.44;5065264;28;20192;-69
2023/06/14 11:05:24;;;;;;;4.82;3.33;;;;;;;26.14;42.46;101911.22;5064079;28;20309;-69
2023/06/14 11:08:11;;;;;;;5.20;3.42;;;;;;;26.05;43.48;101920.22;5066723;28;20189;-70
2023/06/14 11:10:40;;;;;;;3.83;2.60;;;;;;;25.81;41.85;101886.69;5066688;28;20652;-69
2023/06/14 11:13:07;;;;;;;5.55;3.60;;;;;;;25.90;42.86;101915.34;5068488;28;20217;-70
2023/06/14 11:15:37;;;;;;;7.32;3.28;;;;;;;25.78;41.85;101889.41;5065187;28;20215;-69
2023/06/14 11:18:05;;;;;;;5.63;3.33;;;;;;;26.05;43.41;101906.19;5061968;28;20192;-69
2023/06/14 11:20:33;;;;;;;7.40;3.10;;;;;;;25.72;42.70;101893.94;5079035;28;20570;-69